Weather History for Hays, KS

Change the Weather History Date:

Thursday, November 14, 2013

  Actual Average Record
Temperature  
Mean Temperature 44 °F -  
Max Temperature 55 °F 53 °F 71 °F (2001)
Min Temperature 32 °F 30 °F 12 °F (2000)
Degree Days  
Heating Degree Days 21    
Moisture  
Dew Point 30 °F    
Average Humidity 60    
Maximum Humidity 81    
Minimum Humidity 44    
Precipitation  
Precipitation 0.00 in - - ()
Sea Level Pressure  
Sea Level Pressure 29.93 in    
Wind  
Wind Speed 10 mph (WNW)    
Max Wind Speed 18 mph    
Max Gust Speed 22 mph    
Visibility 10 miles    
Events      
Averages and records for this station are not official NWS values.
T = Trace of Precipitation, MM = Missing Value Source: NWS Daily Summary

Daily Weather History Graph

Daily Weather History Graph

Search for Another Location

Airport:

Trip Planner

Search our weather history database for the weather conditions in past years. The results will help you decide how hot, cold, wet, or windy it might be!

Date:

Astronomy

Nov. 14, 2013 Rise Set
Actual Time 7:18 AM CST 5:23 PM CST
Civil Twilight 6:50 AM CST 5:52 PM CST
Nautical Twilight 6:18 AM CST 6:24 PM CST
Astronomical Twilight 5:46 AM CST 6:55 PM CST
Moon 3:44 PM CST (11/14) 4:17 AM CST (11/14)
Length of Visible Light 11h 01m
Length of Day
10h 05m
Waxing Gibbous, 92% of the Moon is Illuminated
Nov 14
Waxing Gibbous
Nov 17
Full
Nov 25
Last Quarter
Dec 2
New
Dec 9
First Quarter

Hourly Weather History & Observations

Time (CST) Temp. Windchill Dew Point Humidity Pressure Visibility Wind Dir Wind Speed Gust Speed Precip Events Conditions
12:15 AM 42.8 °F 37.0 °F 24.8 °F 49% 30.01 in 10.0 mi South 10.4 mph - N/A   Clear
12:35 AM 42.8 °F 35.4 °F 24.8 °F 49% 30.00 in 10.0 mi SSW 15.0 mph - N/A   Clear
12:55 AM 42.8 °F 35.8 °F 24.8 °F 49% 29.99 in 10.0 mi South 13.8 mph - N/A   Clear
1:15 AM 41.0 °F 35.2 °F 24.8 °F 53% 29.98 in 10.0 mi South 9.2 mph - N/A   Clear
1:35 AM 39.2 °F 33.6 °F 24.8 °F 56% 29.97 in 10.0 mi South 8.1 mph - N/A   Clear
1:55 AM 41.0 °F 35.2 °F 24.8 °F 53% 29.96 in 10.0 mi South 9.2 mph - N/A   Clear
2:15 AM 39.2 °F 32.0 °F 24.8 °F 56% 29.96 in 10.0 mi South 11.5 mph - N/A   Clear
2:35 AM 39.2 °F 34.2 °F 24.8 °F 56% 29.96 in 10.0 mi SSW 6.9 mph - N/A   Clear
2:55 AM 39.2 °F 37.0 °F 24.8 °F 56% 29.95 in 10.0 mi SSW 3.5 mph - N/A   Clear
3:15 AM 39.2 °F 33.6 °F 24.8 °F 56% 29.95 in 10.0 mi SSW 8.1 mph - N/A   Clear
3:35 AM 37.4 °F 30.8 °F 26.6 °F 65% 29.95 in 10.0 mi NW 9.2 mph - N/A   Clear
3:55 AM 39.2 °F 30.5 °F 26.6 °F 61% 29.93 in 10.0 mi SSW 16.1 mph - N/A   Clear
4:15 AM 39.2 °F 30.2 °F 26.6 °F 61% 29.93 in 10.0 mi SSW 17.3 mph - N/A   Clear
4:35 AM 41.0 °F 33.5 °F 24.8 °F 53% 29.92 in 10.0 mi SSW 13.8 mph - N/A   Clear
4:55 AM 41.0 °F 33.5 °F 26.6 °F 57% 29.92 in 10.0 mi South 13.8 mph - N/A   Clear
5:15 AM 39.2 °F 32.5 °F 26.6 °F 61% 29.92 in 10.0 mi South 10.4 mph - N/A   Clear
5:35 AM 39.2 °F 34.2 °F 26.6 °F 61% 29.91 in 10.0 mi SSW 6.9 mph - N/A   Clear
5:55 AM 39.2 °F 35.0 °F 26.6 °F 61% 29.90 in 10.0 mi SSW 5.8 mph - N/A   Clear
6:15 AM 39.2 °F 33.6 °F 26.6 °F 61% 29.90 in 10.0 mi SSW 8.1 mph - N/A   Clear
6:35 AM 39.2 °F 33.0 °F 26.6 °F 61% 29.91 in 10.0 mi SW 9.2 mph - N/A   Clear
6:55 AM 39.2 °F 33.0 °F 26.6 °F 61% 29.93 in 10.0 mi SW 9.2 mph - N/A   Clear
7:15 AM 37.4 °F 29.3 °F 26.6 °F 65% 29.92 in 10.0 mi SSW 12.7 mph - N/A   Clear
7:35 AM 39.2 °F 37.0 °F 26.6 °F 61% 29.92 in 10.0 mi SW 3.5 mph - N/A   Clear
7:55 AM 37.4 °F 32.8 °F 26.6 °F 65% 29.92 in 10.0 mi South 5.8 mph - N/A   Clear
8:15 AM 39.2 °F 33.0 °F 28.4 °F 65% 29.92 in 10.0 mi SSW 9.2 mph - N/A   Clear
8:35 AM 41.0 °F 34.7 °F 28.4 °F 61% 29.93 in 10.0 mi SSW 10.4 mph - N/A   Clear
8:55 AM 42.8 °F 37.5 °F 28.4 °F 57% 29.94 in 10.0 mi SW 9.2 mph - N/A   Clear
9:15 AM 42.8 °F 36.6 °F 28.4 °F 57% 29.94 in 10.0 mi SW 11.5 mph - N/A   Clear
9:35 AM 42.8 °F 38.6 °F 30.2 °F 61% 29.95 in 10.0 mi SW 6.9 mph - N/A   Clear
9:55 AM 46.4 °F 40.7 °F 30.2 °F 53% 29.95 in 10.0 mi SW 12.7 mph - N/A   Clear
10:15 AM 46.4 °F 42.4 °F 30.2 °F 53% 29.95 in 10.0 mi WSW 8.1 mph - N/A   Clear
10:35 AM 46.4 °F 42.9 °F 32.0 °F 57% 29.95 in 10.0 mi SW 6.9 mph - N/A   Clear
10:55 AM 46.4 °F 43.5 °F 33.8 °F 62% 29.95 in 10.0 mi WSW 5.8 mph - N/A   Clear
11:15 AM 48.2 °F - 33.8 °F 58% 29.95 in 10.0 mi North 8.1 mph - N/A   Clear
11:35 AM 48.2 °F - 33.8 °F 58% 29.94 in 10.0 mi NNE 9.2 mph - N/A   Clear
11:55 AM 50.0 °F - 35.6 °F 58% 29.94 in 10.0 mi NNE 8.1 mph 16.1 mph N/A   Clear
12:15 PM 51.8 °F - 35.6 °F 54% 29.93 in 10.0 mi NNE 9.2 mph 16.1 mph N/A   Clear
12:35 PM 51.8 °F - 35.6 °F 54% 29.92 in 10.0 mi NE 11.5 mph 16.1 mph N/A   Clear
12:55 PM 53.6 °F - 37.4 °F 54% 29.92 in 10.0 mi NNE 15.0 mph - N/A   Clear
1:15 PM 53.6 °F - 37.4 °F 54% 29.92 in 10.0 mi NNE 15.0 mph - N/A   Clear
1:35 PM 55.4 °F - 37.4 °F 51% 29.92 in 10.0 mi NE 16.1 mph 21.9 mph N/A   Clear
1:55 PM 53.6 °F - 35.6 °F 51% 29.92 in 10.0 mi NNE 16.1 mph 20.7 mph N/A   Clear
2:15 PM 55.4 °F - 35.6 °F 47% 29.92 in 10.0 mi NNE 17.3 mph - N/A   Clear
2:35 PM 55.4 °F - 35.6 °F 47% 29.91 in 10.0 mi NNE 18.4 mph 21.9 mph N/A   Clear
2:55 PM 55.4 °F - 33.8 °F 44% 29.92 in 10.0 mi NE 13.8 mph 19.6 mph N/A   Clear
3:15 PM 55.4 °F - 35.6 °F 47% 29.91 in 10.0 mi NNE 17.3 mph - N/A   Clear
3:35 PM 55.4 °F - 33.8 °F 44% 29.91 in 10.0 mi NE 13.8 mph - N/A   Clear
3:55 PM 55.4 °F - 33.8 °F 44% 29.91 in 10.0 mi ENE 13.8 mph - N/A   Clear
4:15 PM 55.4 °F - 33.8 °F 44% 29.91 in 10.0 mi ENE 12.7 mph - N/A   Clear
4:35 PM 53.6 °F - 33.8 °F 47% 29.91 in 10.0 mi East 10.4 mph - N/A   Clear
4:55 PM 51.8 °F - 33.8 °F 50% 29.92 in 10.0 mi East 9.2 mph - N/A   Clear
5:15 PM 50.0 °F - 33.8 °F 54% 29.91 in 10.0 mi ENE 6.9 mph - N/A   Clear
5:35 PM 46.4 °F 42.9 °F 33.8 °F 62% 29.91 in 10.0 mi ENE 6.9 mph - N/A   Clear
5:55 PM 44.6 °F 40.7 °F 33.8 °F 66% 29.91 in 10.0 mi NE 6.9 mph - N/A   Clear
6:15 PM 44.6 °F 41.4 °F 30.2 °F 57% 29.91 in 10.0 mi NE 5.8 mph - N/A   Clear
6:35 PM 44.6 °F 41.4 °F 33.8 °F 66% 29.92 in 10.0 mi NNE 5.8 mph - N/A   Clear
6:55 PM 42.8 °F 39.3 °F 30.2 °F 61% 29.92 in 10.0 mi NE 5.8 mph - N/A   Clear
7:15 PM 42.8 °F 40.1 °F 30.2 °F 61% 29.91 in 10.0 mi NE 4.6 mph - N/A   Clear
7:35 PM 42.8 °F 39.3 °F 33.8 °F 70% 29.91 in 10.0 mi NNE 5.8 mph - N/A   Clear
7:55 PM 39.2 °F 35.0 °F 30.2 °F 70% 29.91 in 10.0 mi North 5.8 mph - N/A   Clear
8:15 PM 37.4 °F 32.8 °F 30.2 °F 75% 29.91 in 10.0 mi NNE 5.8 mph - N/A   Clear
8:35 PM 37.4 °F 34.9 °F 30.2 °F 75% 29.91 in 10.0 mi NNE 3.5 mph - N/A   Clear
8:55 PM 37.4 °F - 28.4 °F 70% 29.90 in 10.0 mi Calm Calm - N/A   Clear
9:15 PM 35.6 °F 31.7 °F 30.2 °F 81% 29.91 in 10.0 mi NW 4.6 mph - N/A   Clear
9:35 PM 35.6 °F 31.7 °F 30.2 °F 81% 29.91 in 10.0 mi WNW 4.6 mph - N/A   Clear
9:55 PM 35.6 °F 30.7 °F 28.4 °F 75% 29.92 in 10.0 mi WNW 5.8 mph - N/A   Clear
10:15 PM 35.6 °F 31.7 °F 30.2 °F 81% 29.93 in 10.0 mi NW 4.6 mph - N/A   Clear
10:35 PM 35.6 °F 32.8 °F 30.2 °F 81% 29.92 in 10.0 mi NNW 3.5 mph - N/A   Clear
10:55 PM 33.8 °F 28.6 °F 28.4 °F 81% 29.92 in 10.0 mi NNW 5.8 mph - N/A   Clear
11:15 PM 33.8 °F 28.6 °F 28.4 °F 81% 29.90 in 10.0 mi NW 5.8 mph - N/A   Clear
11:35 PM 33.8 °F 27.7 °F 28.4 °F 81% 29.90 in 10.0 mi NW 6.9 mph - N/A   Clear
11:55 PM 32.0 °F 24.2 °F 26.6 °F 80% 29.91 in 10.0 mi NW 9.2 mph - N/A   Clear